DMADG EDXW-ZZZZ
Flight info
| Callsign | DMADG |
|---|---|
| Flight time | N/A |
| Altitude | |
| Route | |
| Aircraft | CL20 |
Departure
| Time | 2026-05-08 16:15 |
|---|---|
| Airport | Westerland Sylt Airport (EDXW) |
Arrival
| Time | N/A |
|---|---|
| Airport | ZZZZ |
| Time | Latitude | Longitude | Altitude | Speed | Heading |
|---|---|---|---|---|---|
| 2026-05-08 16:11 | 54.91260 | 8.32505 | 34 ft | 0 kts | 247° |
| 2026-05-08 16:12 | 54.91256 | 8.32505 | 34 ft | 3 kts | 124° |
| 2026-05-08 16:12 | 54.91234 | 8.32580 | 34 ft | 11 kts | 143° |
| 2026-05-08 16:12 | 54.91168 | 8.32695 | 33 ft | 16 kts | 127° |
| 2026-05-08 16:13 | 54.91100 | 8.32829 | 33 ft | 7 kts | 132° |
| 2026-05-08 16:13 | 54.91091 | 8.32847 | 33 ft | 0 kts | 131° |
| 2026-05-08 16:14 | 54.91083 | 8.32862 | 33 ft | 10 kts | 132° |
| 2026-05-08 16:14 | 54.91010 | 8.33012 | 34 ft | 16 kts | 116° |
| 2026-05-08 16:15 | 54.91055 | 8.33252 | 33 ft | 45 kts | 58° |
| 2026-05-08 16:15 | 54.91274 | 8.33912 | 162 ft | 69 kts | 52° |
| 2026-05-08 16:15 | 54.91501 | 8.34631 | 431 ft | 69 kts | 57° |
| 2026-05-08 16:15 | 54.91735 | 8.35365 | 715 ft | 71 kts | 59° |
| 2026-05-08 16:16 | 54.91708 | 8.36183 | 1012 ft | 81 kts | 138° |
| 2026-05-08 16:16 | 54.91129 | 8.36669 | 1094 ft | 105 kts | 154° |
| 2026-05-08 16:16 | 54.90545 | 8.36150 | 1213 ft | 108 kts | 248° |
| 2026-05-08 16:16 | 54.90325 | 8.34853 | 1169 ft | 116 kts | 251° |
| 2026-05-08 16:17 | 54.89985 | 8.33629 | 1122 ft | 110 kts | 237° |
| 2026-05-08 16:17 | 54.89747 | 8.32827 | 959 ft | 111 kts | 248° |
| 2026-05-08 16:17 | 54.90021 | 8.31412 | 621 ft | 91 kts | 332° |
| 2026-05-08 16:17 | 54.90527 | 8.31364 | 483 ft | 72 kts | 56° |
| 2026-05-08 16:18 | 54.90670 | 8.32197 | 273 ft | 71 kts | 53° |
| 2026-05-08 16:18 | 54.90932 | 8.32886 | 85 ft | 67 kts | 53° |
| 2026-05-08 16:18 | 54.91142 | 8.33513 | 32 ft | 49 kts | 58° |
| 2026-05-08 16:18 | 54.91329 | 8.34101 | 152 ft | 60 kts | 51° |
| 2026-05-08 16:19 | 54.91543 | 8.34788 | 391 ft | 64 kts | 57° |
| 2026-05-08 16:19 | 54.91772 | 8.35457 | 689 ft | 67 kts | 66° |
| 2026-05-08 16:19 | 54.91563 | 8.36162 | 880 ft | 83 kts | 156° |
| 2026-05-08 16:19 | 54.91013 | 8.36484 | 981 ft | 89 kts | 159° |
| 2026-05-08 16:20 | 54.90469 | 8.35987 | 1096 ft | 99 kts | 227° |
| 2026-05-08 16:20 | 54.90046 | 8.34939 | 1061 ft | 110 kts | 241° |
| 2026-05-08 16:20 | 54.89758 | 8.33715 | 962 ft | 108 kts | 248° |
| 2026-05-08 16:20 | 54.89478 | 8.32512 | 676 ft | 103 kts | 249° |
| 2026-05-08 16:21 | 54.89501 | 8.31490 | 489 ft | 79 kts | 332° |
| 2026-05-08 16:21 | 54.89985 | 8.31180 | 419 ft | 71 kts | 5° |
| 2026-05-08 16:21 | 54.90435 | 8.31570 | 364 ft | 76 kts | 38° |
| 2026-05-08 16:21 | 54.90749 | 8.32360 | 210 ft | 80 kts | 53° |
| 2026-05-08 16:22 | 54.91005 | 8.33114 | 62 ft | 62 kts | 51° |
| 2026-05-08 16:22 | 54.91189 | 8.33647 | 33 ft | 44 kts | 61° |
| 2026-05-08 16:22 | 54.91384 | 8.34228 | 159 ft | 62 kts | 53° |
| 2026-05-08 16:22 | 54.91596 | 8.34914 | 406 ft | 66 kts | 55° |
| 2026-05-08 16:23 | 54.91796 | 8.35629 | 652 ft | 73 kts | 87° |
| 2026-05-08 16:23 | 54.91386 | 8.36233 | 824 ft | 88 kts | 153° |
| 2026-05-08 16:23 | 54.90824 | 8.36528 | 954 ft | 89 kts | 178° |
| 2026-05-08 16:23 | 54.90412 | 8.35706 | 997 ft | 101 kts | 251° |
| 2026-05-08 16:24 | 54.90172 | 8.34589 | 930 ft | 93 kts | 244° |
| 2026-05-08 16:24 | 54.89857 | 8.33648 | 871 ft | 88 kts | 240° |
| 2026-05-08 16:24 | 54.89561 | 8.32655 | 658 ft | 95 kts | 258° |
| 2026-05-08 16:24 | 54.89841 | 8.31863 | 471 ft | 78 kts | 336° |
| 2026-05-08 16:25 | 54.90303 | 8.31514 | 402 ft | 64 kts | 346° |
| 2026-05-08 16:25 | 54.90603 | 8.31958 | 284 ft | 64 kts | 58° |
| 2026-05-08 16:25 | 54.90841 | 8.32635 | 134 ft | 67 kts | 51° |
| 2026-05-08 16:25 | 54.91063 | 8.33283 | 37 ft | 53 kts | 57° |
| 2026-05-08 16:26 | 54.91234 | 8.33781 | 35 ft | 58 kts | 54° |
| 2026-05-08 16:26 | 54.91442 | 8.34418 | 239 ft | 63 kts | 51° |
| 2026-05-08 16:26 | 54.91673 | 8.35062 | 508 ft | 65 kts | 54° |
| 2026-05-08 16:26 | 54.91861 | 8.35804 | 727 ft | 75 kts | 92° |
| 2026-05-08 16:27 | 54.91411 | 8.36342 | 914 ft | 86 kts | 156° |
| 2026-05-08 16:27 | 54.90826 | 8.36601 | 994 ft | 91 kts | 171° |
| 2026-05-08 16:27 | 54.90350 | 8.35887 | 1010 ft | 102 kts | 259° |
| 2026-05-08 16:27 | 54.90211 | 8.34641 | 972 ft | 105 kts | 256° |
| 2026-05-08 16:28 | 54.89991 | 8.33462 | 977 ft | 100 kts | 244° |
| 2026-05-08 16:28 | 54.89663 | 8.32391 | 870 ft | 98 kts | 243° |
| 2026-05-08 16:28 | 54.89827 | 8.31505 | 639 ft | 77 kts | 337° |
| 2026-05-08 16:28 | 54.90300 | 8.31291 | 528 ft | 66 kts | 13° |
| 2026-05-08 16:29 | 54.90587 | 8.31907 | 330 ft | 67 kts | 58° |
| 2026-05-08 16:29 | 54.90818 | 8.32571 | 141 ft | 63 kts | 48° |
| 2026-05-08 16:29 | 54.91031 | 8.33187 | 41 ft | 55 kts | 57° |
| 2026-05-08 16:29 | 54.91204 | 8.33692 | 36 ft | 56 kts | 56° |
| 2026-05-08 16:30 | 54.91404 | 8.34319 | 214 ft | 67 kts | 50° |
| 2026-05-08 16:30 | 54.91669 | 8.35042 | 429 ft | 74 kts | 53° |
| 2026-05-08 16:30 | 54.91699 | 8.35897 | 706 ft | 83 kts | 128° |
| 2026-05-08 16:30 | 54.91113 | 8.36304 | 942 ft | 97 kts | 159° |
| 2026-05-08 16:31 | 54.90436 | 8.36358 | 1107 ft | 102 kts | 213° |
| 2026-05-08 16:31 | 54.90185 | 8.35232 | 1082 ft | 104 kts | 258° |
| 2026-05-08 16:31 | 54.89988 | 8.34041 | 914 ft | 98 kts | 251° |
| 2026-05-08 16:31 | 54.89726 | 8.32955 | 757 ft | 98 kts | 245° |
| 2026-05-08 16:32 | 54.89534 | 8.31852 | 622 ft | 96 kts | 283° |
| 2026-05-08 16:32 | 54.89963 | 8.31245 | 525 ft | 83 kts | 356° |
| 2026-05-08 16:32 | 54.90522 | 8.31370 | 411 ft | 74 kts | 50° |
| 2026-05-08 16:32 | 54.90660 | 8.32148 | 276 ft | 63 kts | 60° |
| 2026-05-08 16:33 | 54.90916 | 8.32848 | 91 ft | 72 kts | 55° |
| 2026-05-08 16:33 | 54.91132 | 8.33484 | 32 ft | 48 kts | 59° |
| 2026-05-08 16:33 | 54.91277 | 8.33911 | 35 ft | 32 kts | 62° |
| 2026-05-08 16:33 | 54.91377 | 8.33986 | 36 ft | 17 kts | 326° |
| 2026-05-08 16:34 | 54.91469 | 8.33871 | 36 ft | 18 kts | 324° |
| 2026-05-08 16:34 | 54.91563 | 8.33751 | 37 ft | 17 kts | 324° |
| 2026-05-08 16:34 | 54.91651 | 8.33642 | 38 ft | 14 kts | 316° |
| 2026-05-08 16:34 | 54.91680 | 8.33577 | 38 ft | 6 kts | 274° |
| 2026-05-08 16:35 | 54.91727 | 8.33370 | 36 ft | 26 kts | 293° |
| 2026-05-08 16:35 | 54.91752 | 8.33182 | 36 ft | 12 kts | 202° |
| 2026-05-08 16:35 | 54.91642 | 8.33177 | 36 ft | 21 kts | 176° |
| 2026-05-08 16:35 | 54.91510 | 8.33178 | 36 ft | 19 kts | 178° |
| 2026-05-08 16:36 | 54.91398 | 8.33250 | 35 ft | 13 kts | 178° |
| 2026-05-08 16:36 | 54.91314 | 8.33225 | 35 ft | 14 kts | 208° |
| 2026-05-08 16:36 | 54.91214 | 8.33180 | 34 ft | 16 kts | 180° |
| 2026-05-08 16:36 | 54.91150 | 8.33180 | 34 ft | 0 kts | 181° |
| 2026-05-08 16:37 | 54.91078 | 8.33181 | 33 ft | 21 kts | 176° |
| 2026-05-08 16:37 | 54.90998 | 8.33087 | 34 ft | 16 kts | 251° |
| 2026-05-08 16:37 | 54.91071 | 8.32888 | 33 ft | 23 kts | 312° |
| 2026-05-08 16:38 | 54.91172 | 8.32684 | 33 ft | 19 kts | 303° |
| 2026-05-08 16:38 | 54.91247 | 8.32573 | 34 ft | 13 kts | 325° |
| 2026-05-08 16:38 | 54.91249 | 8.32519 | 34 ft | 0 kts | 233° |
| 2026-05-08 16:51 | 54.91234 | 8.32531 | 34 ft | 4 kts | 122° |
| 2026-05-08 16:51 | 54.91219 | 8.32598 | 34 ft | 6 kts | 129° |
| 2026-05-08 16:51 | 54.91180 | 8.32665 | 33 ft | 10 kts | 128° |
| 2026-05-08 16:52 | 54.91128 | 8.32774 | 33 ft | 13 kts | 129° |
| 2026-05-08 16:52 | 54.91093 | 8.32843 | 33 ft | 0 kts | 131° |
| 2026-05-08 16:52 | 54.91090 | 8.32848 | 33 ft | 5 kts | 131° |
| 2026-05-08 16:53 | 54.91002 | 8.33094 | 34 ft | 11 kts | 72° |
| 2026-05-08 16:53 | 54.91134 | 8.33489 | 42 ft | 62 kts | 68° |
| 2026-05-08 16:53 | 54.91366 | 8.34139 | 323 ft | 66 kts | 62° |
| 2026-05-08 16:54 | 54.91639 | 8.34868 | 570 ft | 76 kts | 65° |
| 2026-05-08 16:54 | 54.91824 | 8.35747 | 827 ft | 86 kts | 91° |
| 2026-05-08 16:54 | 54.91364 | 8.36484 | 1040 ft | 106 kts | 154° |
| 2026-05-08 16:54 | 54.90623 | 8.36879 | 1099 ft | 111 kts | 180° |
| 2026-05-08 16:55 | 54.90163 | 8.36085 | 1134 ft | 102 kts | 268° |
| 2026-05-08 16:55 | 54.90091 | 8.34792 | 951 ft | 110 kts | 266° |
| 2026-05-08 16:55 | 54.89973 | 8.33541 | 909 ft | 101 kts | 262° |
| 2026-05-08 16:55 | 54.89769 | 8.32406 | 829 ft | 96 kts | 248° |
| 2026-05-08 16:56 | 54.89480 | 8.31378 | 660 ft | 93 kts | 241° |
| 2026-05-08 16:56 | 54.89198 | 8.30354 | 506 ft | 95 kts | 246° |
| 2026-05-08 16:56 | 54.89426 | 8.29474 | 701 ft | 89 kts | 341° |
| 2026-05-08 16:56 | 54.89957 | 8.29669 | 797 ft | 85 kts | 62° |
| 2026-05-08 16:57 | 54.90182 | 8.30745 | 604 ft | 99 kts | 66° |
| 2026-05-08 16:57 | 54.90521 | 8.31683 | 404 ft | 83 kts | 61° |
| 2026-05-08 16:57 | 54.90804 | 8.32508 | 201 ft | 69 kts | 65° |
| 2026-05-08 16:57 | 54.91014 | 8.33129 | 54 ft | 53 kts | 68° |
| 2026-05-08 16:58 | 54.91164 | 8.33582 | 33 ft | 35 kts | 60° |
| 2026-05-08 16:58 | 54.91316 | 8.34036 | 147 ft | 48 kts | 70° |
| 2026-05-08 16:58 | 54.91501 | 8.34584 | 372 ft | 57 kts | 68° |
| 2026-05-08 16:58 | 54.91708 | 8.35227 | 625 ft | 63 kts | 65° |
| 2026-05-08 16:59 | 54.91528 | 8.35871 | 856 ft | 83 kts | 157° |
| 2026-05-08 16:59 | 54.90932 | 8.36213 | 1038 ft | 97 kts | 155° |
| 2026-05-08 16:59 | 54.90292 | 8.36244 | 1090 ft | 95 kts | 219° |
| 2026-05-08 16:59 | 54.90049 | 8.35200 | 1025 ft | 101 kts | 262° |
| 2026-05-08 17:00 | 54.89888 | 8.34015 | 960 ft | 99 kts | 256° |
| 2026-05-08 17:00 | 54.89687 | 8.32869 | 763 ft | 97 kts | 259° |
| 2026-05-08 17:00 | 54.89966 | 8.32015 | 568 ft | 85 kts | 340° |
| 2026-05-08 17:00 | 54.90463 | 8.31768 | 467 ft | 68 kts | 28° |
| 2026-05-08 17:01 | 54.90760 | 8.32379 | 222 ft | 64 kts | 66° |
| 2026-05-08 17:01 | 54.90964 | 8.32985 | 66 ft | 53 kts | 70° |
| 2026-05-08 17:01 | 54.91111 | 8.33439 | 33 ft | 32 kts | 56° |
| 2026-05-08 17:01 | 54.91262 | 8.33861 | 75 ft | 51 kts | 69° |
| 2026-05-08 17:02 | 54.91457 | 8.34405 | 318 ft | 56 kts | 66° |
| 2026-05-08 17:02 | 54.91666 | 8.35038 | 551 ft | 64 kts | 65° |
| 2026-05-08 17:02 | 54.91765 | 8.35794 | 809 ft | 74 kts | 107° |
| 2026-05-08 17:02 | 54.91240 | 8.36257 | 968 ft | 103 kts | 161° |
| 2026-05-08 17:03 | 54.90499 | 8.36538 | 1095 ft | 111 kts | 186° |
| 2026-05-08 17:03 | 54.90127 | 8.35629 | 1071 ft | 100 kts | 264° |
| 2026-05-08 17:03 | 54.90043 | 8.34393 | 890 ft | 102 kts | 265° |
| 2026-05-08 17:03 | 54.89875 | 8.33227 | 841 ft | 97 kts | 247° |
| 2026-05-08 17:04 | 54.89758 | 8.32122 | 762 ft | 91 kts | 296° |
| 2026-05-08 17:04 | 54.90229 | 8.31613 | 556 ft | 83 kts | 351° |
| 2026-05-08 17:04 | 54.90611 | 8.31936 | 408 ft | 65 kts | 68° |
| 2026-05-08 17:04 | 54.90831 | 8.32598 | 218 ft | 60 kts | 64° |
| 2026-05-08 17:05 | 54.91031 | 8.33179 | 87 ft | 55 kts | 69° |
| 2026-05-08 17:05 | 54.91224 | 8.33757 | 69 ft | 55 kts | 68° |
| 2026-05-08 17:05 | 54.91416 | 8.34326 | 97 ft | 55 kts | 68° |
| 2026-05-08 17:05 | 54.91479 | 8.34511 | 170 ft | 53 kts | 68° |
| 2026-05-08 17:06 | 54.91668 | 8.35105 | 400 ft | 57 kts | 65° |
| 2026-05-08 17:06 | 54.91660 | 8.35762 | 631 ft | 70 kts | 140° |
| 2026-05-08 17:06 | 54.91188 | 8.36175 | 890 ft | 80 kts | 150° |
| 2026-05-08 17:06 | 54.90583 | 8.36198 | 1074 ft | 101 kts | 199° |
| 2026-05-08 17:07 | 54.90124 | 8.35354 | 1107 ft | 100 kts | 259° |
| 2026-05-08 17:07 | 54.90012 | 8.34139 | 923 ft | 100 kts | 258° |
| 2026-05-08 17:07 | 54.89799 | 8.32968 | 772 ft | 103 kts | 261° |
| 2026-05-08 17:07 | 54.90113 | 8.32210 | 761 ft | 79 kts | 23° |
| 2026-05-08 17:08 | 54.90186 | 8.32996 | 678 ft | 82 kts | 133° |
| 2026-05-08 17:08 | 54.89683 | 8.32775 | 678 ft | 91 kts | 245° |
| 2026-05-08 17:08 | 54.89938 | 8.32143 | 709 ft | 70 kts | 27° |
| 2026-05-08 17:08 | 54.89925 | 8.32846 | 711 ft | 79 kts | 145° |
| 2026-05-08 17:09 | 54.89412 | 8.32657 | 748 ft | 87 kts | 238° |
| 2026-05-08 17:09 | 54.89610 | 8.31891 | 700 ft | 76 kts | 357° |
| 2026-05-08 17:09 | 54.90191 | 8.31864 | 449 ft | 86 kts | 14° |
| 2026-05-08 17:09 | 54.90673 | 8.32257 | 304 ft | 72 kts | 51° |
| 2026-05-08 17:10 | 54.90924 | 8.32863 | 88 ft | 54 kts | 70° |
| 2026-05-08 17:10 | 54.91078 | 8.33331 | 36 ft | 36 kts | 66° |
| 2026-05-08 17:10 | 54.91211 | 8.33743 | 53 ft | 48 kts | 61° |
| 2026-05-08 17:10 | 54.91361 | 8.34191 | 203 ft | 42 kts | 60° |
| 2026-05-08 17:11 | 54.91526 | 8.34698 | 373 ft | 52 kts | 55° |
| 2026-05-08 17:11 | 54.91721 | 8.35285 | 566 ft | 63 kts | 70° |
| 2026-05-08 17:11 | 54.91366 | 8.35837 | 678 ft | 89 kts | 155° |
| 2026-05-08 17:11 | 54.90748 | 8.36045 | 835 ft | 97 kts | 162° |
| 2026-05-08 17:12 | 54.90144 | 8.35578 | 992 ft | 100 kts | 240° |
| 2026-05-08 17:12 | 54.89903 | 8.34381 | 923 ft | 108 kts | 244° |
| 2026-05-08 17:12 | 54.89612 | 8.33206 | 850 ft | 103 kts | 241° |
| 2026-05-08 17:12 | 54.89537 | 8.32061 | 601 ft | 95 kts | 307° |
| 2026-05-08 17:13 | 54.90097 | 8.31599 | 482 ft | 86 kts | 357° |
| 2026-05-08 17:13 | 54.90579 | 8.31908 | 358 ft | 69 kts | 41° |
| 2026-05-08 17:13 | 54.90818 | 8.32558 | 170 ft | 59 kts | 60° |
| 2026-05-08 17:13 | 54.91006 | 8.33105 | 52 ft | 52 kts | 60° |
| 2026-05-08 17:14 | 54.91171 | 8.33599 | 35 ft | 41 kts | 62° |
| 2026-05-08 17:14 | 54.91278 | 8.33916 | 35 ft | 22 kts | 60° |
| 2026-05-08 17:14 | 54.91367 | 8.33993 | 36 ft | 18 kts | 333° |
| 2026-05-08 17:14 | 54.91494 | 8.33838 | 36 ft | 23 kts | 322° |
| 2026-05-08 17:15 | 54.91605 | 8.33700 | 38 ft | 18 kts | 326° |
| 2026-05-08 17:15 | 54.91681 | 8.33548 | 38 ft | 19 kts | 287° |
| 2026-05-08 17:15 | 54.91734 | 8.33328 | 36 ft | 20 kts | 295° |
| 2026-05-08 17:15 | 54.91747 | 8.33177 | 36 ft | 11 kts | 186° |
| 2026-05-08 17:16 | 54.91630 | 8.33177 | 36 ft | 21 kts | 178° |
| 2026-05-08 17:16 | 54.91488 | 8.33178 | 35 ft | 17 kts | 175° |
| 2026-05-08 17:16 | 54.91395 | 8.33249 | 35 ft | 13 kts | 176° |
| 2026-05-08 17:16 | 54.91295 | 8.33207 | 35 ft | 18 kts | 212° |
| 2026-05-08 17:17 | 54.91175 | 8.33181 | 34 ft | 19 kts | 179° |
| 2026-05-08 17:17 | 54.91049 | 8.33171 | 33 ft | 18 kts | 202° |
| 2026-05-08 17:17 | 54.91024 | 8.32981 | 34 ft | 21 kts | 314° |
| 2026-05-08 17:17 | 54.91128 | 8.32771 | 33 ft | 23 kts | 306° |
| 2026-05-08 17:18 | 54.91224 | 8.32604 | 34 ft | 20 kts | 337° |
| 2026-05-08 17:18 | 54.91263 | 8.32506 | 34 ft | 2 kts | 237° |
| 2026-05-08 17:18 | 54.91263 | 8.32505 | 34 ft | 0 kts | 239° |